BEL9YD LPFR-EBBR
Flight info
| Callsign | BEL9YD |
|---|---|
| Flight time | N/A |
| Altitude | 36000 |
| Route | EVURA DCT BARDI DCT DELOG DCT YURZI UL14 TEPRA UN867 MOKOR DCT VEKIN DCT ARVOL |
| Aircraft | A20N/M-DE3FGHIJ1LORVWY/HB1G1 |
Departure
| Time | 2026-05-07 14:25 |
|---|---|
| Airport | Faro - Gago Coutinho International Airport (LPFR) |
Arrival
| Time | N/A |
|---|---|
| Airport | Brussels Airport (EBBR) |
| Time | Latitude | Longitude | Altitude | Speed | Heading |
|---|---|---|---|---|---|
| 2026-05-07 14:21 | 37.01842 | -7.97005 | 27 ft | 2 kts | 10° |
| 2026-05-07 14:21 | 37.01834 | -7.97006 | 26 ft | 0 kts | 10° |
| 2026-05-07 14:21 | 37.01842 | -7.96977 | 27 ft | 7 kts | 103° |
| 2026-05-07 14:22 | 37.01832 | -7.96871 | 27 ft | 19 kts | 98° |
| 2026-05-07 14:22 | 37.01804 | -7.96667 | 29 ft | 26 kts | 100° |
| 2026-05-07 14:22 | 37.01728 | -7.96531 | 23 ft | 17 kts | 177° |
| 2026-05-07 14:22 | 37.01624 | -7.96529 | 23 ft | 13 kts | 141° |
| 2026-05-07 14:23 | 37.01599 | -7.96409 | 21 ft | 15 kts | 100° |
| 2026-05-07 14:23 | 37.01580 | -7.96281 | 23 ft | 14 kts | 99° |
| 2026-05-07 14:23 | 37.01564 | -7.96158 | 24 ft | 14 kts | 100° |
| 2026-05-07 14:23 | 37.01546 | -7.96033 | 23 ft | 14 kts | 100° |
| 2026-05-07 14:24 | 37.01526 | -7.95893 | 19 ft | 17 kts | 103° |
| 2026-05-07 14:24 | 37.01426 | -7.95849 | 18 ft | 17 kts | 190° |
| 2026-05-07 14:24 | 37.01358 | -7.95928 | 22 ft | 18 kts | 262° |
| 2026-05-07 14:24 | 37.01414 | -7.96400 | 24 ft | 88 kts | 280° |
| 2026-05-07 14:25 | 37.01556 | -7.97401 | 16 ft | 146 kts | 280° |
| 2026-05-07 14:25 | 37.01760 | -7.98773 | 350 ft | 165 kts | 278° |
| 2026-05-07 14:25 | 37.01982 | -8.00195 | 951 ft | 170 kts | 278° |
| 2026-05-07 14:25 | 37.02201 | -8.01643 | 1631 ft | 174 kts | 279° |
| 2026-05-07 14:26 | 37.02426 | -8.03160 | 2193 ft | 186 kts | 279° |
| 2026-05-07 14:26 | 37.02669 | -8.04814 | 2687 ft | 203 kts | 279° |
| 2026-05-07 14:26 | 37.02932 | -8.06618 | 3196 ft | 221 kts | 279° |
| 2026-05-07 14:26 | 37.03213 | -8.08545 | 3855 ft | 231 kts | 279° |
| 2026-05-07 14:27 | 37.03581 | -8.10520 | 4623 ft | 237 kts | 294° |
| 2026-05-07 14:27 | 37.04657 | -8.12037 | 5388 ft | 239 kts | 333° |
| 2026-05-07 14:27 | 37.06279 | -8.12507 | 6069 ft | 246 kts | 6° |
| 2026-05-07 14:27 | 37.07296 | -8.12307 | 6421 ft | 253 kts | 12° |
| 2026-05-07 14:28 | 37.08092 | -8.12110 | 6660 ft | 261 kts | 11° |